sensor_id;sensor_type;location;lat;lon;timestamp;temperature;humidity
18131;DHT22;9191;54.324;10.126;2023-02-01T00:00:10;5.00;99.90
18131;DHT22;9191;54.324;10.126;2023-02-01T00:02:37;5.00;99.90
18131;DHT22;9191;54.324;10.126;2023-02-01T00:05:06;5.10;99.90
18131;DHT22;9191;54.324;10.126;2023-02-01T00:07:33;5.20;99.90
18131;DHT22;9191;54.324;10.126;2023-02-01T00:10:02;5.20;99.90
18131;DHT22;9191;54.324;10.126;2023-02-01T00:12:31;5.10;99.90
18131;DHT22;9191;54.324;10.126;2023-02-01T00:14:57;5.20;99.90
18131;DHT22;9191;54.324;10.126;2023-02-01T00:17:24;5.20;99.90
18131;DHT22;9191;54.324;10.126;2023-02-01T00:19:54;5.20;99.90
18131;DHT22;9191;54.324;10.126;2023-02-01T00:22:21;5.30;99.90
18131;DHT22;9191;54.324;10.126;2023-02-01T00:24:47;5.30;99.90
18131;DHT22;9191;54.324;10.126;2023-02-01T00:27:14;5.30;99.90
18131;DHT22;9191;54.324;10.126;2023-02-01T00:29:44;5.40;99.90
18131;DHT22;9191;54.324;10.126;2023-02-01T00:32:11;5.40;99.90
18131;DHT22;9191;54.324;10.126;2023-02-01T00:34:38;5.50;99.90
18131;DHT22;9191;54.324;10.126;2023-02-01T00:37:04;5.50;99.90
18131;DHT22;9191;54.324;10.126;2023-02-01T00:39:31;5.50;99.90
18131;DHT22;9191;54.324;10.126;2023-02-01T00:41:59;5.50;99.90
18131;DHT22;9191;54.324;10.126;2023-02-01T00:44:26;5.50;99.90
18131;DHT22;9191;54.324;10.126;2023-02-01T00:46:54;5.60;99.90
18131;DHT22;9191;54.324;10.126;2023-02-01T00:49:20;5.70;99.90
18131;DHT22;9191;54.324;10.126;2023-02-01T00:51:47;5.70;99.90
18131;DHT22;9191;54.324;10.126;2023-02-01T00:54:14;5.80;99.90
18131;DHT22;9191;54.324;10.126;2023-02-01T00:56:40;5.80;99.90
18131;DHT22;9191;54.324;10.126;2023-02-01T00:59:07;5.80;99.90
18131;DHT22;9191;54.324;10.126;2023-02-01T01:01:34;5.80;99.90
18131;DHT22;9191;54.324;10.126;2023-02-01T01:04:02;5.90;99.90
18131;DHT22;9191;54.324;10.126;2023-02-01T01:06:30;6.00;99.90
18131;DHT22;9191;54.324;10.126;2023-02-01T01:08:57;6.00;99.90
18131;DHT22;9191;54.324;10.126;2023-02-01T01:11:25;6.00;99.90
18131;DHT22;9191;54.324;10.126;2023-02-01T01:13:53;6.00;99.90
18131;DHT22;9191;54.324;10.126;2023-02-01T01:16:20;6.10;99.90
18131;DHT22;9191;54.324;10.126;2023-02-01T01:18:47;6.10;99.90
18131;DHT22;9191;54.324;10.126;2023-02-01T01:21:16;6.20;99.90
18131;DHT22;9191;54.324;10.126;2023-02-01T01:23:43;6.20;99.90
18131;DHT22;9191;54.324;10.126;2023-02-01T01:26:10;6.20;99.90
18131;DHT22;9191;54.324;10.126;2023-02-01T01:28:38;6.20;99.90
18131;DHT22;9191;54.324;10.126;2023-02-01T01:31:07;6.20;99.90
18131;DHT22;9191;54.324;10.126;2023-02-01T01:33:34;6.20;99.90
18131;DHT22;9191;54.324;10.126;2023-02-01T01:36:00;6.20;99.90
18131;DHT22;9191;54.324;10.126;2023-02-01T01:38:28;6.10;99.90
18131;DHT22;9191;54.324;10.126;2023-02-01T01:40:55;6.10;99.90
18131;DHT22;9191;54.324;10.126;2023-02-01T01:43:22;6.10;99.90
18131;DHT22;9191;54.324;10.126;2023-02-01T01:45:49;6.10;99.90
18131;DHT22;9191;54.324;10.126;2023-02-01T01:48:17;6.10;99.90
18131;DHT22;9191;54.324;10.126;2023-02-01T01:50:47;6.10;99.90
18131;DHT22;9191;54.324;10.126;2023-02-01T01:53:16;6.20;99.90
18131;DHT22;9191;54.324;10.126;2023-02-01T01:55:46;6.20;99.90
18131;DHT22;9191;54.324;10.126;2023-02-01T01:58:14;6.20;99.90
18131;DHT22;9191;54.324;10.126;2023-02-01T02:00:43;6.30;99.90
18131;DHT22;9191;54.324;10.126;2023-02-01T02:03:11;6.20;99.90
18131;DHT22;9191;54.324;10.126;2023-02-01T02:05:40;6.30;99.90
18131;DHT22;9191;54.324;10.126;2023-02-01T02:08:06;6.30;99.90
18131;DHT22;9191;54.324;10.126;2023-02-01T02:10:33;6.20;99.90
18131;DHT22;9191;54.324;10.126;2023-02-01T02:13:18;6.20;99.90
18131;DHT22;9191;54.324;10.126;2023-02-01T02:15:46;6.20;99.90
18131;DHT22;9191;54.324;10.126;2023-02-01T02:18:17;6.10;99.90
18131;DHT22;9191;54.324;10.126;2023-02-01T02:20:50;6.20;99.90
18131;DHT22;9191;54.324;10.126;2023-02-01T02:23:26;6.20;99.90
18131;DHT22;9191;54.324;10.126;2023-02-01T02:26:07;6.20;99.90
18131;DHT22;9191;54.324;10.126;2023-02-01T02:28:51;6.20;99.90
18131;DHT22;9191;54.324;10.126;2023-02-01T02:31:25;6.20;99.90
18131;DHT22;9191;54.324;10.126;2023-02-01T02:34:00;6.30;99.90
18131;DHT22;9191;54.324;10.126;2023-02-01T02:36:36;6.20;99.90
18131;DHT22;9191;54.324;10.126;2023-02-01T02:39:05;6.20;99.90
18131;DHT22;9191;54.324;10.126;2023-02-01T02:41:35;6.20;99.90
18131;DHT22;9191;54.324;10.126;2023-02-01T02:44:26;6.20;99.90
18131;DHT22;9191;54.324;10.126;2023-02-01T02:47:16;6.20;99.90
18131;DHT22;9191;54.324;10.126;2023-02-01T02:49:52;6.20;99.90
18131;DHT22;9191;54.324;10.126;2023-02-01T02:52:35;6.30;99.90
18131;DHT22;9191;54.324;10.126;2023-02-01T02:55:20;6.30;99.90
18131;DHT22;9191;54.324;10.126;2023-02-01T02:57:47;6.20;99.90
18131;DHT22;9191;54.324;10.126;2023-02-01T03:00:32;6.40;99.90
18131;DHT22;9191;54.324;10.126;2023-02-01T03:03:17;6.30;99.90
18131;DHT22;9191;54.324;10.126;2023-02-01T03:06:02;6.40;99.90
18131;DHT22;9191;54.324;10.126;2023-02-01T03:08:31;6.30;99.90
18131;DHT22;9191;54.324;10.126;2023-02-01T03:10:59;6.40;99.90
18131;DHT22;9191;54.324;10.126;2023-02-01T03:13:30;6.40;99.90
18131;DHT22;9191;54.324;10.126;2023-02-01T03:15:58;6.50;99.90
18131;DHT22;9191;54.324;10.126;2023-02-01T03:18:28;6.30;99.90
18131;DHT22;9191;54.324;10.126;2023-02-01T03:20:57;6.40;99.90
18131;DHT22;9191;54.324;10.126;2023-02-01T03:23:27;6.40;99.90
18131;DHT22;9191;54.324;10.126;2023-02-01T03:25:57;6.40;99.90
18131;DHT22;9191;54.324;10.126;2023-02-01T03:28:25;6.30;99.90
18131;DHT22;9191;54.324;10.126;2023-02-01T03:30:54;6.30;99.90
18131;DHT22;9191;54.324;10.126;2023-02-01T03:33:21;6.20;99.90
18131;DHT22;9191;54.324;10.126;2023-02-01T03:35:50;6.30;99.90
18131;DHT22;9191;54.324;10.126;2023-02-01T03:38:21;6.20;99.90
18131;DHT22;9191;54.324;10.126;2023-02-01T03:40:51;6.30;99.90
18131;DHT22;9191;54.324;10.126;2023-02-01T03:43:18;6.30;99.90
18131;DHT22;9191;54.324;10.126;2023-02-01T03:45:48;6.30;99.90
18131;DHT22;9191;54.324;10.126;2023-02-01T03:48:17;6.40;99.90
18131;DHT22;9191;54.324;10.126;2023-02-01T03:50:44;6.40;99.90
18131;DHT22;9191;54.324;10.126;2023-02-01T03:53:13;6.30;99.90
18131;DHT22;9191;54.324;10.126;2023-02-01T03:55:41;6.30;99.90
18131;DHT22;9191;54.324;10.126;2023-02-01T03:58:10;6.30;99.90
18131;DHT22;9191;54.324;10.126;2023-02-01T04:00:38;6.20;99.90
18131;DHT22;9191;54.324;10.126;2023-02-01T04:03:05;6.20;99.90
18131;DHT22;9191;54.324;10.126;2023-02-01T04:05:33;6.00;99.90
18131;DHT22;9191;54.324;10.126;2023-02-01T04:08:00;5.90;99.90
18131;DHT22;9191;54.324;10.126;2023-02-01T04:10:26;5.80;99.90
18131;DHT22;9191;54.324;10.126;2023-02-01T04:12:53;5.70;99.90
18131;DHT22;9191;54.324;10.126;2023-02-01T04:15:21;5.60;99.90
18131;DHT22;9191;54.324;10.126;2023-02-01T04:17:48;5.60;99.90
18131;DHT22;9191;54.324;10.126;2023-02-01T04:20:15;5.50;99.90
18131;DHT22;9191;54.324;10.126;2023-02-01T04:22:42;5.50;99.90
18131;DHT22;9191;54.324;10.126;2023-02-01T04:25:08;5.50;99.90
18131;DHT22;9191;54.324;10.126;2023-02-01T04:27:35;5.40;99.90
18131;DHT22;9191;54.324;10.126;2023-02-01T04:30:02;5.40;99.90
18131;DHT22;9191;54.324;10.126;2023-02-01T04:32:30;5.40;99.90
18131;DHT22;9191;54.324;10.126;2023-02-01T04:34:57;5.40;99.90
18131;DHT22;9191;54.324;10.126;2023-02-01T04:37:24;5.40;99.90
18131;DHT22;9191;54.324;10.126;2023-02-01T04:39:50;5.30;99.90
18131;DHT22;9191;54.324;10.126;2023-02-01T04:42:17;5.30;99.90
18131;DHT22;9191;54.324;10.126;2023-02-01T04:44:43;5.40;99.90
18131;DHT22;9191;54.324;10.126;2023-02-01T04:47:10;5.30;99.90
18131;DHT22;9191;54.324;10.126;2023-02-01T04:49:38;5.30;99.90
18131;DHT22;9191;54.324;10.126;2023-02-01T04:52:05;5.20;99.90
18131;DHT22;9191;54.324;10.126;2023-02-01T04:54:31;5.20;99.90
18131;DHT22;9191;54.324;10.126;2023-02-01T04:56:58;5.20;99.90
18131;DHT22;9191;54.324;10.126;2023-02-01T04:59:25;5.20;99.90
18131;DHT22;9191;54.324;10.126;2023-02-01T05:01:51;5.10;99.90
18131;DHT22;9191;54.324;10.126;2023-02-01T05:04:18;5.20;99.90
18131;DHT22;9191;54.324;10.126;2023-02-01T05:06:46;5.20;99.90
18131;DHT22;9191;54.324;10.126;2023-02-01T05:09:13;5.20;99.90
18131;DHT22;9191;54.324;10.126;2023-02-01T05:11:39;5.20;99.90
18131;DHT22;9191;54.324;10.126;2023-02-01T05:14:24;5.20;99.90
18131;DHT22;9191;54.324;10.126;2023-02-01T05:16:50;5.20;99.90
18131;DHT22;9191;54.324;10.126;2023-02-01T05:19:17;5.20;99.90
18131;DHT22;9191;54.324;10.126;2023-02-01T05:21:44;5.20;99.90
18131;DHT22;9191;54.324;10.126;2023-02-01T05:24:12;5.20;99.90
18131;DHT22;9191;54.324;10.126;2023-02-01T05:26:41;5.20;99.90
18131;DHT22;9191;54.324;10.126;2023-02-01T05:29:08;5.30;99.90
18131;DHT22;9191;54.324;10.126;2023-02-01T05:31:35;5.20;99.90
18131;DHT22;9191;54.324;10.126;2023-02-01T05:34:02;5.30;99.90
18131;DHT22;9191;54.324;10.126;2023-02-01T05:36:29;5.30;99.90
18131;DHT22;9191;54.324;10.126;2023-02-01T05:38:56;5.40;99.90
18131;DHT22;9191;54.324;10.126;2023-02-01T05:41:24;5.40;99.90
18131;DHT22;9191;54.324;10.126;2023-02-01T05:43:50;5.50;99.90
18131;DHT22;9191;54.324;10.126;2023-02-01T05:46:17;5.60;99.90
18131;DHT22;9191;54.324;10.126;2023-02-01T05:48:44;5.60;99.90
18131;DHT22;9191;54.324;10.126;2023-02-01T05:51:11;5.60;99.90
18131;DHT22;9191;54.324;10.126;2023-02-01T05:53:37;5.70;99.90
18131;DHT22;9191;54.324;10.126;2023-02-01T05:56:04;5.70;99.90
18131;DHT22;9191;54.324;10.126;2023-02-01T05:58:33;5.70;99.90
18131;DHT22;9191;54.324;10.126;2023-02-01T06:00:59;5.70;99.90
18131;DHT22;9191;54.324;10.126;2023-02-01T06:03:26;5.70;99.90
18131;DHT22;9191;54.324;10.126;2023-02-01T06:05:53;5.70;99.90
18131;DHT22;9191;54.324;10.126;2023-02-01T06:08:20;5.60;99.90
18131;DHT22;9191;54.324;10.126;2023-02-01T06:10:46;5.60;99.90
18131;DHT22;9191;54.324;10.126;2023-02-01T06:13:13;5.60;99.90
18131;DHT22;9191;54.324;10.126;2023-02-01T06:15:41;5.60;99.90
18131;DHT22;9191;54.324;10.126;2023-02-01T06:18:09;5.60;99.90
18131;DHT22;9191;54.324;10.126;2023-02-01T06:20:35;5.60;99.90
18131;DHT22;9191;54.324;10.126;2023-02-01T06:23:02;5.50;99.90
18131;DHT22;9191;54.324;10.126;2023-02-01T06:25:30;5.40;99.90
18131;DHT22;9191;54.324;10.126;2023-02-01T06:27:59;5.50;99.90
18131;DHT22;9191;54.324;10.126;2023-02-01T06:30:32;5.50;99.90
18131;DHT22;9191;54.324;10.126;2023-02-01T06:33:01;5.50;99.90
18131;DHT22;9191;54.324;10.126;2023-02-01T06:35:27;5.50;99.90
18131;DHT22;9191;54.324;10.126;2023-02-01T06:37:54;5.50;99.90
18131;DHT22;9191;54.324;10.126;2023-02-01T06:40:23;5.40;99.90
18131;DHT22;9191;54.324;10.126;2023-02-01T06:42:49;5.40;99.90
18131;DHT22;9191;54.324;10.126;2023-02-01T06:45:16;5.30;99.90
18131;DHT22;9191;54.324;10.126;2023-02-01T06:47:43;5.30;99.90
18131;DHT22;9191;54.324;10.126;2023-02-01T06:50:11;5.30;99.90
18131;DHT22;9191;54.324;10.126;2023-02-01T06:52:41;5.40;99.90
18131;DHT22;9191;54.324;10.126;2023-02-01T06:55:08;5.30;99.90
18131;DHT22;9191;54.324;10.126;2023-02-01T06:57:38;5.30;99.90
18131;DHT22;9191;54.324;10.126;2023-02-01T07:00:05;5.30;99.90
18131;DHT22;9191;54.324;10.126;2023-02-01T07:02:32;5.30;99.90
18131;DHT22;9191;54.324;10.126;2023-02-01T07:04:59;5.30;99.90
18131;DHT22;9191;54.324;10.126;2023-02-01T07:07:27;5.30;99.90
18131;DHT22;9191;54.324;10.126;2023-02-01T07:09:53;5.40;99.90
18131;DHT22;9191;54.324;10.126;2023-02-01T07:12:23;5.50;99.90
18131;DHT22;9191;54.324;10.126;2023-02-01T07:14:50;5.60;99.90
18131;DHT22;9191;54.324;10.126;2023-02-01T07:17:16;5.50;99.90
18131;DHT22;9191;54.324;10.126;2023-02-01T07:19:43;5.50;99.90
18131;DHT22;9191;54.324;10.126;2023-02-01T07:22:10;5.60;99.90
18131;DHT22;9191;54.324;10.126;2023-02-01T07:24:38;5.50;99.90
18131;DHT22;9191;54.324;10.126;2023-02-01T07:27:05;5.50;99.90
18131;DHT22;9191;54.324;10.126;2023-02-01T07:29:31;5.50;99.90
18131;DHT22;9191;54.324;10.126;2023-02-01T07:31:58;5.60;99.90
18131;DHT22;9191;54.324;10.126;2023-02-01T07:34:25;5.60;99.90
18131;DHT22;9191;54.324;10.126;2023-02-01T07:36:52;5.60;99.90
18131;DHT22;9191;54.324;10.126;2023-02-01T07:39:19;5.70;99.90
18131;DHT22;9191;54.324;10.126;2023-02-01T07:41:47;5.70;99.90
18131;DHT22;9191;54.324;10.126;2023-02-01T07:44:13;5.80;99.90
18131;DHT22;9191;54.324;10.126;2023-02-01T07:46:40;5.80;99.90
18131;DHT22;9191;54.324;10.126;2023-02-01T07:49:08;5.90;99.90
18131;DHT22;9191;54.324;10.126;2023-02-01T07:51:35;5.80;99.90
18131;DHT22;9191;54.324;10.126;2023-02-01T07:54:02;5.90;99.90
18131;DHT22;9191;54.324;10.126;2023-02-01T07:56:29;5.90;99.90
18131;DHT22;9191;54.324;10.126;2023-02-01T07:58:57;5.90;99.90
18131;DHT22;9191;54.324;10.126;2023-02-01T08:01:25;6.00;99.90
18131;DHT22;9191;54.324;10.126;2023-02-01T08:03:53;6.10;99.90
18131;DHT22;9191;54.324;10.126;2023-02-01T08:06:20;6.10;99.90
18131;DHT22;9191;54.324;10.126;2023-02-01T08:08:47;6.10;99.90
18131;DHT22;9191;54.324;10.126;2023-02-01T08:11:15;6.20;99.90
18131;DHT22;9191;54.324;10.126;2023-02-01T08:13:42;6.30;99.90
18131;DHT22;9191;54.324;10.126;2023-02-01T08:16:10;6.40;99.90
18131;DHT22;9191;54.324;10.126;2023-02-01T08:18:40;6.40;99.90
18131;DHT22;9191;54.324;10.126;2023-02-01T08:21:08;6.40;99.90
18131;DHT22;9191;54.324;10.126;2023-02-01T08:23:35;6.30;99.90
18131;DHT22;9191;54.324;10.126;2023-02-01T08:26:09;6.70;99.90
18131;DHT22;9191;54.324;10.126;2023-02-01T08:28:36;7.10;99.90
18131;DHT22;9191;54.324;10.126;2023-02-01T08:31:04;7.90;99.90
18131;DHT22;9191;54.324;10.126;2023-02-01T08:33:32;8.60;99.90
18131;DHT22;9191;54.324;10.126;2023-02-01T08:36:00;8.70;99.90
18131;DHT22;9191;54.324;10.126;2023-02-01T08:38:26;8.00;99.90
18131;DHT22;9191;54.324;10.126;2023-02-01T08:40:53;7.80;99.90
18131;DHT22;9191;54.324;10.126;2023-02-01T08:43:20;7.40;99.90
18131;DHT22;9191;54.324;10.126;2023-02-01T08:45:46;7.20;99.90
18131;DHT22;9191;54.324;10.126;2023-02-01T08:48:13;7.10;99.90
18131;DHT22;9191;54.324;10.126;2023-02-01T08:50:41;7.00;99.90
18131;DHT22;9191;54.324;10.126;2023-02-01T08:53:09;6.90;99.90
18131;DHT22;9191;54.324;10.126;2023-02-01T08:55:39;6.90;99.90
18131;DHT22;9191;54.324;10.126;2023-02-01T08:58:05;7.30;99.90
18131;DHT22;9191;54.324;10.126;2023-02-01T09:00:32;7.70;99.90
18131;DHT22;9191;54.324;10.126;2023-02-01T09:02:58;8.50;99.90
18131;DHT22;9191;54.324;10.126;2023-02-01T09:05:25;9.40;99.90
18131;DHT22;9191;54.324;10.126;2023-02-01T09:07:56;9.70;99.90
18131;DHT22;9191;54.324;10.126;2023-02-01T09:10:22;9.50;99.90
18131;DHT22;9191;54.324;10.126;2023-02-01T09:12:49;8.80;99.90
18131;DHT22;9191;54.324;10.126;2023-02-01T09:15:17;8.80;99.90
18131;DHT22;9191;54.324;10.126;2023-02-01T09:17:43;9.40;99.90
18131;DHT22;9191;54.324;10.126;2023-02-01T09:20:11;9.70;99.90
18131;DHT22;9191;54.324;10.126;2023-02-01T09:22:38;10.20;99.90
18131;DHT22;9191;54.324;10.126;2023-02-01T09:25:06;9.80;99.90
18131;DHT22;9191;54.324;10.126;2023-02-01T09:27:33;9.10;99.90
18131;DHT22;9191;54.324;10.126;2023-02-01T09:30:00;8.70;99.90
18131;DHT22;9191;54.324;10.126;2023-02-01T09:32:27;8.30;99.90
18131;DHT22;9191;54.324;10.126;2023-02-01T09:34:53;8.20;99.90
18131;DHT22;9191;54.324;10.126;2023-02-01T09:37:20;8.30;99.90
18131;DHT22;9191;54.324;10.126;2023-02-01T09:39:47;8.10;99.90
18131;DHT22;9191;54.324;10.126;2023-02-01T09:42:21;8.00;99.90
18131;DHT22;9191;54.324;10.126;2023-02-01T09:44:51;7.80;99.90
18131;DHT22;9191;54.324;10.126;2023-02-01T09:47:20;7.70;99.90
18131;DHT22;9191;54.324;10.126;2023-02-01T09:49:49;7.60;99.90
18131;DHT22;9191;54.324;10.126;2023-02-01T09:52:19;7.60;99.90
18131;DHT22;9191;54.324;10.126;2023-02-01T09:54:47;7.60;99.90
18131;DHT22;9191;54.324;10.126;2023-02-01T09:57:16;7.60;99.90
18131;DHT22;9191;54.324;10.126;2023-02-01T09:59:47;7.60;99.90
18131;DHT22;9191;54.324;10.126;2023-02-01T10:02:17;7.60;99.90
18131;DHT22;9191;54.324;10.126;2023-02-01T10:04:45;7.60;99.90
18131;DHT22;9191;54.324;10.126;2023-02-01T10:07:16;7.60;99.90
18131;DHT22;9191;54.324;10.126;2023-02-01T10:09:50;7.50;99.90
18131;DHT22;9191;54.324;10.126;2023-02-01T10:15:05;7.40;99.90
18131;DHT22;9191;54.324;10.126;2023-02-01T10:17:44;7.50;99.90
18131;DHT22;9191;54.324;10.126;2023-02-01T10:20:15;7.60;99.90
18131;DHT22;9191;54.324;10.126;2023-02-01T10:22:44;7.70;99.90
18131;DHT22;9191;54.324;10.126;2023-02-01T10:25:13;7.80;99.90
18131;DHT22;9191;54.324;10.126;2023-02-01T10:27:43;7.90;99.90
18131;DHT22;9191;54.324;10.126;2023-02-01T10:30:17;7.90;99.90
18131;DHT22;9191;54.324;10.126;2023-02-01T10:32:47;8.00;99.90
18131;DHT22;9191;54.324;10.126;2023-02-01T10:35:21;8.10;99.90
18131;DHT22;9191;54.324;10.126;2023-02-01T10:37:48;8.10;99.90
18131;DHT22;9191;54.324;10.126;2023-02-01T10:40:17;8.10;99.90
18131;DHT22;9191;54.324;10.126;2023-02-01T10:42:46;8.10;99.90
18131;DHT22;9191;54.324;10.126;2023-02-01T10:45:16;8.20;99.90
18131;DHT22;9191;54.324;10.126;2023-02-01T10:47:45;8.20;99.90
18131;DHT22;9191;54.324;10.126;2023-02-01T10:50:15;8.20;99.90
18131;DHT22;9191;54.324;10.126;2023-02-01T10:52:43;8.10;99.90
18131;DHT22;9191;54.324;10.126;2023-02-01T10:55:25;8.10;99.90
18131;DHT22;9191;54.324;10.126;2023-02-01T10:57:55;8.10;99.90
18131;DHT22;9191;54.324;10.126;2023-02-01T11:00:21;8.00;99.90
18131;DHT22;9191;54.324;10.126;2023-02-01T11:02:52;7.90;99.90
18131;DHT22;9191;54.324;10.126;2023-02-01T11:05:19;7.90;99.90
18131;DHT22;9191;54.324;10.126;2023-02-01T11:07:48;7.70;99.90
18131;DHT22;9191;54.324;10.126;2023-02-01T11:12:57;7.60;99.90
18131;DHT22;9191;54.324;10.126;2023-02-01T11:15:24;7.40;99.90
18131;DHT22;9191;54.324;10.126;2023-02-01T11:17:54;7.40;99.90
18131;DHT22;9191;54.324;10.126;2023-02-01T11:20:25;7.30;99.90
18131;DHT22;9191;54.324;10.126;2023-02-01T11:22:58;7.10;99.90
18131;DHT22;9191;54.324;10.126;2023-02-01T11:25:25;7.10;99.90
18131;DHT22;9191;54.324;10.126;2023-02-01T11:27:53;7.10;99.90
18131;DHT22;9191;54.324;10.126;2023-02-01T11:30:22;7.30;99.90
18131;DHT22;9191;54.324;10.126;2023-02-01T11:32:51;7.30;99.90
18131;DHT22;9191;54.324;10.126;2023-02-01T11:35:19;7.40;99.90
18131;DHT22;9191;54.324;10.126;2023-02-01T11:37:48;7.50;99.90
18131;DHT22;9191;54.324;10.126;2023-02-01T11:40:23;7.50;99.90
18131;DHT22;9191;54.324;10.126;2023-02-01T11:42:55;7.60;99.90
18131;DHT22;9191;54.324;10.126;2023-02-01T11:45:25;7.60;99.90
18131;DHT22;9191;54.324;10.126;2023-02-01T11:47:54;7.70;99.90
18131;DHT22;9191;54.324;10.126;2023-02-01T11:50:28;7.70;99.90
18131;DHT22;9191;54.324;10.126;2023-02-01T11:53:03;7.80;99.90
18131;DHT22;9191;54.324;10.126;2023-02-01T11:55:36;7.80;99.90
18131;DHT22;9191;54.324;10.126;2023-02-01T11:58:09;7.80;99.90
18131;DHT22;9191;54.324;10.126;2023-02-01T12:00:43;7.60;99.90
18131;DHT22;9191;54.324;10.126;2023-02-01T12:06:03;7.40;99.90
18131;DHT22;9191;54.324;10.126;2023-02-01T12:08:38;7.10;99.90
18131;DHT22;9191;54.324;10.126;2023-02-01T12:11:26;6.90;99.90
18131;DHT22;9191;54.324;10.126;2023-02-01T12:13:56;6.60;99.90
18131;DHT22;9191;54.324;10.126;2023-02-01T12:16:28;6.60;99.90
18131;DHT22;9191;54.324;10.126;2023-02-01T12:21:52;6.50;99.90
18131;DHT22;9191;54.324;10.126;2023-02-01T12:24:33;6.30;99.90
18131;DHT22;9191;54.324;10.126;2023-02-01T12:27:10;6.30;99.90
18131;DHT22;9191;54.324;10.126;2023-02-01T12:29:49;6.50;99.90
18131;DHT22;9191;54.324;10.126;2023-02-01T12:32:23;6.50;99.90
18131;DHT22;9191;54.324;10.126;2023-02-01T12:34:56;6.60;99.90
18131;DHT22;9191;54.324;10.126;2023-02-01T12:37:33;6.60;99.90
18131;DHT22;9191;54.324;10.126;2023-02-01T12:40:10;6.60;99.90
18131;DHT22;9191;54.324;10.126;2023-02-01T12:42:41;6.60;99.90
18131;DHT22;9191;54.324;10.126;2023-02-01T12:45:11;6.60;99.90
18131;DHT22;9191;54.324;10.126;2023-02-01T12:47:40;6.70;99.90
18131;DHT22;9191;54.324;10.126;2023-02-01T12:50:12;6.70;99.90
18131;DHT22;9191;54.324;10.126;2023-02-01T12:52:44;6.70;99.90
18131;DHT22;9191;54.324;10.126;2023-02-01T12:55:15;6.80;99.90
18131;DHT22;9191;54.324;10.126;2023-02-01T12:57:43;6.80;99.90
18131;DHT22;9191;54.324;10.126;2023-02-01T13:02:40;7.10;99.90
18131;DHT22;9191;54.324;10.126;2023-02-01T13:05:13;7.10;99.90
18131;DHT22;9191;54.324;10.126;2023-02-01T13:07:45;7.20;99.90
18131;DHT22;9191;54.324;10.126;2023-02-01T13:10:12;7.20;99.90
18131;DHT22;9191;54.324;10.126;2023-02-01T13:12:42;7.30;99.90
18131;DHT22;9191;54.324;10.126;2023-02-01T13:15:11;7.30;99.90
18131;DHT22;9191;54.324;10.126;2023-02-01T13:17:39;7.40;99.90
18131;DHT22;9191;54.324;10.126;2023-02-01T13:20:10;7.30;99.90
18131;DHT22;9191;54.324;10.126;2023-02-01T13:22:40;7.30;99.90
18131;DHT22;9191;54.324;10.126;2023-02-01T13:25:12;7.10;99.90
18131;DHT22;9191;54.324;10.126;2023-02-01T13:27:39;6.80;99.90
18131;DHT22;9191;54.324;10.126;2023-02-01T13:30:07;6.60;99.90
18131;DHT22;9191;54.324;10.126;2023-02-01T13:32:45;6.40;99.90
18131;DHT22;9191;54.324;10.126;2023-02-01T13:35:30;6.30;99.90
18131;DHT22;9191;54.324;10.126;2023-02-01T13:38:02;6.30;99.90
18131;DHT22;9191;54.324;10.126;2023-02-01T13:40:36;6.30;99.90
18131;DHT22;9191;54.324;10.126;2023-02-01T13:43:05;6.40;99.90
18131;DHT22;9191;54.324;10.126;2023-02-01T13:45:34;6.40;99.90
18131;DHT22;9191;54.324;10.126;2023-02-01T13:48:03;6.30;99.90
18131;DHT22;9191;54.324;10.126;2023-02-01T13:50:30;6.30;99.90
18131;DHT22;9191;54.324;10.126;2023-02-01T13:53:01;6.30;99.90
18131;DHT22;9191;54.324;10.126;2023-02-01T13:55:34;6.30;99.90
18131;DHT22;9191;54.324;10.126;2023-02-01T13:58:14;6.30;99.90
18131;DHT22;9191;54.324;10.126;2023-02-01T14:00:42;6.30;99.90
18131;DHT22;9191;54.324;10.126;2023-02-01T14:03:10;6.40;99.90
18131;DHT22;9191;54.324;10.126;2023-02-01T14:08:36;6.70;99.90
18131;DHT22;9191;54.324;10.126;2023-02-01T14:11:05;6.80;99.90
18131;DHT22;9191;54.324;10.126;2023-02-01T14:13:32;6.90;99.90
18131;DHT22;9191;54.324;10.126;2023-02-01T14:16:13;6.90;99.90
18131;DHT22;9191;54.324;10.126;2023-02-01T14:18:56;6.90;99.90
18131;DHT22;9191;54.324;10.126;2023-02-01T14:21:25;7.00;99.90
18131;DHT22;9191;54.324;10.126;2023-02-01T14:23:56;7.00;99.90
18131;DHT22;9191;54.324;10.126;2023-02-01T14:26:25;7.10;99.90
18131;DHT22;9191;54.324;10.126;2023-02-01T14:28:53;7.00;99.90
18131;DHT22;9191;54.324;10.126;2023-02-01T14:34:11;7.10;99.90
18131;DHT22;9191;54.324;10.126;2023-02-01T14:36:45;7.10;99.90
18131;DHT22;9191;54.324;10.126;2023-02-01T14:42:06;7.20;99.90
18131;DHT22;9191;54.324;10.126;2023-02-01T14:44:40;7.10;99.90
18131;DHT22;9191;54.324;10.126;2023-02-01T14:47:08;7.10;99.90
18131;DHT22;9191;54.324;10.126;2023-02-01T14:49:37;7.10;99.90
18131;DHT22;9191;54.324;10.126;2023-02-01T14:52:05;7.10;99.90
18131;DHT22;9191;54.324;10.126;2023-02-01T14:54:32;7.00;99.90
18131;DHT22;9191;54.324;10.126;2023-02-01T14:56:59;6.90;99.90
18131;DHT22;9191;54.324;10.126;2023-02-01T14:59:27;6.90;99.90
18131;DHT22;9191;54.324;10.126;2023-02-01T15:01:58;6.90;99.90
18131;DHT22;9191;54.324;10.126;2023-02-01T15:04:26;6.80;99.90
18131;DHT22;9191;54.324;10.126;2023-02-01T15:06:53;6.90;99.90
18131;DHT22;9191;54.324;10.126;2023-02-01T15:09:24;6.90;99.90
18131;DHT22;9191;54.324;10.126;2023-02-01T15:11:59;6.80;99.90
18131;DHT22;9191;54.324;10.126;2023-02-01T15:14:28;6.80;99.90
18131;DHT22;9191;54.324;10.126;2023-02-01T15:16:55;6.90;99.90
18131;DHT22;9191;54.324;10.126;2023-02-01T15:19:22;6.80;99.90
18131;DHT22;9191;54.324;10.126;2023-02-01T15:21:50;6.80;99.90
18131;DHT22;9191;54.324;10.126;2023-02-01T15:24:21;6.80;99.90
18131;DHT22;9191;54.324;10.126;2023-02-01T15:26:50;6.80;99.90
18131;DHT22;9191;54.324;10.126;2023-02-01T15:29:17;6.70;99.90
18131;DHT22;9191;54.324;10.126;2023-02-01T15:31:46;6.70;99.90
18131;DHT22;9191;54.324;10.126;2023-02-01T15:34:13;6.80;99.90
18131;DHT22;9191;54.324;10.126;2023-02-01T15:36:40;6.90;99.90
18131;DHT22;9191;54.324;10.126;2023-02-01T15:39:20;6.90;99.90
18131;DHT22;9191;54.324;10.126;2023-02-01T15:41:52;6.90;99.90
18131;DHT22;9191;54.324;10.126;2023-02-01T15:44:20;6.80;99.90
18131;DHT22;9191;54.324;10.126;2023-02-01T15:46:49;6.70;99.90
18131;DHT22;9191;54.324;10.126;2023-02-01T15:49:20;6.70;99.90
18131;DHT22;9191;54.324;10.126;2023-02-01T15:51:48;6.70;99.90
18131;DHT22;9191;54.324;10.126;2023-02-01T15:54:17;6.70;99.90
18131;DHT22;9191;54.324;10.126;2023-02-01T15:56:58;6.70;99.90
18131;DHT22;9191;54.324;10.126;2023-02-01T15:59:28;6.60;99.90
18131;DHT22;9191;54.324;10.126;2023-02-01T16:01:57;6.70;99.90
18131;DHT22;9191;54.324;10.126;2023-02-01T16:04:24;6.70;99.90
18131;DHT22;9191;54.324;10.126;2023-02-01T16:06:51;6.70;99.90
18131;DHT22;9191;54.324;10.126;2023-02-01T16:09:19;6.80;99.90
18131;DHT22;9191;54.324;10.126;2023-02-01T16:11:48;6.90;99.90
18131;DHT22;9191;54.324;10.126;2023-02-01T16:14:15;6.90;99.90
18131;DHT22;9191;54.324;10.126;2023-02-01T16:16:41;6.90;99.90
18131;DHT22;9191;54.324;10.126;2023-02-01T16:19:09;7.00;99.90